sensor_id;sensor_type;location;lat;lon;timestamp;temperature;humidity
35746;DHT22;21870;42.812;74.628;2023-11-19T00:00:57;10.20;99.90
35746;DHT22;21870;42.812;74.628;2023-11-19T00:03:23;10.10;99.90
35746;DHT22;21870;42.812;74.628;2023-11-19T00:05:49;10.20;99.90
35746;DHT22;21870;42.812;74.628;2023-11-19T00:08:16;10.30;99.90
35746;DHT22;21870;42.812;74.628;2023-11-19T00:10:42;10.30;99.90
35746;DHT22;21870;42.812;74.628;2023-11-19T00:13:08;10.30;99.90
35746;DHT22;21870;42.812;74.628;2023-11-19T00:15:35;10.20;99.90
35746;DHT22;21870;42.812;74.628;2023-11-19T00:18:01;10.20;99.90
35746;DHT22;21870;42.812;74.628;2023-11-19T00:20:30;10.20;99.90
35746;DHT22;21870;42.812;74.628;2023-11-19T00:22:56;10.10;99.90
35746;DHT22;21870;42.812;74.628;2023-11-19T00:25:23;10.00;99.90
35746;DHT22;21870;42.812;74.628;2023-11-19T00:27:50;10.00;99.90
35746;DHT22;21870;42.812;74.628;2023-11-19T00:30:17;9.90;99.90
35746;DHT22;21870;42.812;74.628;2023-11-19T00:32:43;9.90;99.90
35746;DHT22;21870;42.812;74.628;2023-11-19T00:35:09;10.00;99.90
35746;DHT22;21870;42.812;74.628;2023-11-19T00:37:41;10.00;99.90
35746;DHT22;21870;42.812;74.628;2023-11-19T00:40:08;10.00;99.90
35746;DHT22;21870;42.812;74.628;2023-11-19T00:42:36;10.10;99.90
35746;DHT22;21870;42.812;74.628;2023-11-19T00:45:02;10.10;99.90
35746;DHT22;21870;42.812;74.628;2023-11-19T00:47:28;10.20;99.90
35746;DHT22;21870;42.812;74.628;2023-11-19T00:49:56;10.30;99.90
35746;DHT22;21870;42.812;74.628;2023-11-19T00:52:22;10.20;99.90
35746;DHT22;21870;42.812;74.628;2023-11-19T00:54:48;10.20;99.90
35746;DHT22;21870;42.812;74.628;2023-11-19T00:57:15;10.30;99.90
35746;DHT22;21870;42.812;74.628;2023-11-19T00:59:44;10.30;99.90
35746;DHT22;21870;42.812;74.628;2023-11-19T01:02:10;10.20;99.90
35746;DHT22;21870;42.812;74.628;2023-11-19T01:04:36;10.30;99.90
35746;DHT22;21870;42.812;74.628;2023-11-19T01:07:04;10.30;99.90
35746;DHT22;21870;42.812;74.628;2023-11-19T01:09:33;10.30;99.90
35746;DHT22;21870;42.812;74.628;2023-11-19T01:12:04;10.20;99.90
35746;DHT22;21870;42.812;74.628;2023-11-19T01:14:30;10.30;99.90
35746;DHT22;21870;42.812;74.628;2023-11-19T01:16:57;10.30;99.90
35746;DHT22;21870;42.812;74.628;2023-11-19T01:19:23;10.30;99.90
35746;DHT22;21870;42.812;74.628;2023-11-19T01:21:50;10.20;99.90
35746;DHT22;21870;42.812;74.628;2023-11-19T01:24:16;10.30;99.90
35746;DHT22;21870;42.812;74.628;2023-11-19T01:26:43;10.30;99.90
35746;DHT22;21870;42.812;74.628;2023-11-19T01:29:16;10.30;99.90
35746;DHT22;21870;42.812;74.628;2023-11-19T01:31:42;10.40;99.90
35746;DHT22;21870;42.812;74.628;2023-11-19T01:34:09;10.40;99.90
35746;DHT22;21870;42.812;74.628;2023-11-19T01:36:37;10.40;99.90
35746;DHT22;21870;42.812;74.628;2023-11-19T01:39:03;10.30;99.90
35746;DHT22;21870;42.812;74.628;2023-11-19T01:41:35;10.30;99.90
35746;DHT22;21870;42.812;74.628;2023-11-19T01:44:02;10.30;99.90
35746;DHT22;21870;42.812;74.628;2023-11-19T01:46:28;10.20;99.90
35746;DHT22;21870;42.812;74.628;2023-11-19T01:48:55;10.30;99.90
35746;DHT22;21870;42.812;74.628;2023-11-19T01:51:22;10.30;99.90
35746;DHT22;21870;42.812;74.628;2023-11-19T01:53:49;10.30;99.90
35746;DHT22;21870;42.812;74.628;2023-11-19T01:56:16;10.30;99.90
35746;DHT22;21870;42.812;74.628;2023-11-19T01:58:44;10.20;99.90
35746;DHT22;21870;42.812;74.628;2023-11-19T02:01:11;10.20;99.90
35746;DHT22;21870;42.812;74.628;2023-11-19T02:03:38;10.20;99.90
35746;DHT22;21870;42.812;74.628;2023-11-19T02:06:05;10.20;99.90
35746;DHT22;21870;42.812;74.628;2023-11-19T02:08:31;10.20;99.90
35746;DHT22;21870;42.812;74.628;2023-11-19T02:10:57;10.20;99.90
35746;DHT22;21870;42.812;74.628;2023-11-19T02:13:25;10.20;99.90
35746;DHT22;21870;42.812;74.628;2023-11-19T02:15:51;10.30;99.90
35746;DHT22;21870;42.812;74.628;2023-11-19T02:18:25;10.30;99.90
35746;DHT22;21870;42.812;74.628;2023-11-19T02:20:54;10.30;99.90
35746;DHT22;21870;42.812;74.628;2023-11-19T02:23:21;10.30;99.90
35746;DHT22;21870;42.812;74.628;2023-11-19T02:28:39;10.20;99.90
35746;DHT22;21870;42.812;74.628;2023-11-19T02:31:07;10.00;99.90
35746;DHT22;21870;42.812;74.628;2023-11-19T02:33:36;10.00;99.90
35746;DHT22;21870;42.812;74.628;2023-11-19T02:36:06;9.90;99.90
35746;DHT22;21870;42.812;74.628;2023-11-19T02:38:34;9.90;99.90
35746;DHT22;21870;42.812;74.628;2023-11-19T02:41:04;9.90;99.90
35746;DHT22;21870;42.812;74.628;2023-11-19T02:43:35;9.90;99.90
35746;DHT22;21870;42.812;74.628;2023-11-19T02:46:04;9.90;99.90
35746;DHT22;21870;42.812;74.628;2023-11-19T02:48:37;9.80;99.90
35746;DHT22;21870;42.812;74.628;2023-11-19T02:51:04;9.90;99.90
35746;DHT22;21870;42.812;74.628;2023-11-19T02:53:31;9.90;99.90
35746;DHT22;21870;42.812;74.628;2023-11-19T02:55:57;9.90;99.90
35746;DHT22;21870;42.812;74.628;2023-11-19T02:58:31;9.80;99.90
35746;DHT22;21870;42.812;74.628;2023-11-19T03:00:57;9.90;99.90
35746;DHT22;21870;42.812;74.628;2023-11-19T03:03:26;9.80;99.90
35746;DHT22;21870;42.812;74.628;2023-11-19T03:06:07;9.80;99.90
35746;DHT22;21870;42.812;74.628;2023-11-19T03:08:35;9.80;99.90
35746;DHT22;21870;42.812;74.628;2023-11-19T03:11:02;9.80;99.90
35746;DHT22;21870;42.812;74.628;2023-11-19T03:13:28;9.80;99.90
35746;DHT22;21870;42.812;74.628;2023-11-19T03:15:54;9.90;99.90
35746;DHT22;21870;42.812;74.628;2023-11-19T03:18:20;9.80;99.90
35746;DHT22;21870;42.812;74.628;2023-11-19T03:20:47;9.80;99.90
35746;DHT22;21870;42.812;74.628;2023-11-19T03:23:13;9.70;99.90
35746;DHT22;21870;42.812;74.628;2023-11-19T03:25:39;9.70;99.90
35746;DHT22;21870;42.812;74.628;2023-11-19T03:28:05;9.60;99.90
35746;DHT22;21870;42.812;74.628;2023-11-19T03:30:32;9.60;99.90
35746;DHT22;21870;42.812;74.628;2023-11-19T03:32:58;9.50;99.90
35746;DHT22;21870;42.812;74.628;2023-11-19T03:35:26;9.60;99.90
35746;DHT22;21870;42.812;74.628;2023-11-19T03:37:53;9.50;99.90
35746;DHT22;21870;42.812;74.628;2023-11-19T03:40:19;9.50;99.90
35746;DHT22;21870;42.812;74.628;2023-11-19T03:42:46;9.50;99.90
35746;DHT22;21870;42.812;74.628;2023-11-19T03:45:13;9.50;99.90
35746;DHT22;21870;42.812;74.628;2023-11-19T03:47:40;9.50;99.90
35746;DHT22;21870;42.812;74.628;2023-11-19T03:50:06;9.60;99.90
35746;DHT22;21870;42.812;74.628;2023-11-19T03:52:36;9.60;99.90
35746;DHT22;21870;42.812;74.628;2023-11-19T03:55:02;9.60;99.90
35746;DHT22;21870;42.812;74.628;2023-11-19T03:57:31;9.70;99.90
35746;DHT22;21870;42.812;74.628;2023-11-19T03:59:57;9.70;99.90
35746;DHT22;21870;42.812;74.628;2023-11-19T04:02:24;9.60;99.90
35746;DHT22;21870;42.812;74.628;2023-11-19T04:04:54;9.60;99.90
35746;DHT22;21870;42.812;74.628;2023-11-19T04:07:20;9.60;99.90
35746;DHT22;21870;42.812;74.628;2023-11-19T04:09:47;9.60;99.90
35746;DHT22;21870;42.812;74.628;2023-11-19T04:12:13;9.60;99.90
35746;DHT22;21870;42.812;74.628;2023-11-19T04:14:39;9.70;99.90
35746;DHT22;21870;42.812;74.628;2023-11-19T04:17:06;9.70;99.90
35746;DHT22;21870;42.812;74.628;2023-11-19T04:19:32;9.70;99.90
35746;DHT22;21870;42.812;74.628;2023-11-19T04:21:58;9.70;99.90
35746;DHT22;21870;42.812;74.628;2023-11-19T04:24:24;9.60;99.90
35746;DHT22;21870;42.812;74.628;2023-11-19T04:26:50;9.60;99.90
35746;DHT22;21870;42.812;74.628;2023-11-19T04:29:18;9.60;99.90
35746;DHT22;21870;42.812;74.628;2023-11-19T04:31:45;9.70;99.90
35746;DHT22;21870;42.812;74.628;2023-11-19T04:34:12;9.70;99.90
35746;DHT22;21870;42.812;74.628;2023-11-19T04:36:38;9.70;99.90
35746;DHT22;21870;42.812;74.628;2023-11-19T04:39:05;9.70;99.90
35746;DHT22;21870;42.812;74.628;2023-11-19T04:41:35;9.70;99.90
35746;DHT22;21870;42.812;74.628;2023-11-19T04:44:05;9.70;99.90
35746;DHT22;21870;42.812;74.628;2023-11-19T04:46:31;9.70;99.90
35746;DHT22;21870;42.812;74.628;2023-11-19T04:48:57;9.80;99.90
35746;DHT22;21870;42.812;74.628;2023-11-19T04:51:23;9.80;99.90
35746;DHT22;21870;42.812;74.628;2023-11-19T04:53:49;9.80;99.90
35746;DHT22;21870;42.812;74.628;2023-11-19T04:56:15;9.80;99.90
35746;DHT22;21870;42.812;74.628;2023-11-19T04:58:45;9.80;99.90
35746;DHT22;21870;42.812;74.628;2023-11-19T05:01:14;9.80;99.90
35746;DHT22;21870;42.812;74.628;2023-11-19T05:03:43;9.90;99.90
35746;DHT22;21870;42.812;74.628;2023-11-19T05:06:09;10.00;99.90
35746;DHT22;21870;42.812;74.628;2023-11-19T05:08:36;9.90;99.90
35746;DHT22;21870;42.812;74.628;2023-11-19T05:11:02;9.80;99.90
35746;DHT22;21870;42.812;74.628;2023-11-19T05:13:29;9.80;99.90
35746;DHT22;21870;42.812;74.628;2023-11-19T05:15:55;9.70;99.90
35746;DHT22;21870;42.812;74.628;2023-11-19T05:18:21;9.70;99.90
35746;DHT22;21870;42.812;74.628;2023-11-19T05:20:47;9.70;99.90
35746;DHT22;21870;42.812;74.628;2023-11-19T05:23:13;9.70;99.90
35746;DHT22;21870;42.812;74.628;2023-11-19T05:25:39;9.80;99.90
35746;DHT22;21870;42.812;74.628;2023-11-19T05:28:05;9.80;99.90
35746;DHT22;21870;42.812;74.628;2023-11-19T05:30:31;9.90;99.90
35746;DHT22;21870;42.812;74.628;2023-11-19T05:32:57;9.90;99.90
35746;DHT22;21870;42.812;74.628;2023-11-19T05:35:23;10.00;99.90
35746;DHT22;21870;42.812;74.628;2023-11-19T05:37:49;10.00;99.90
35746;DHT22;21870;42.812;74.628;2023-11-19T05:40:15;10.10;99.90
35746;DHT22;21870;42.812;74.628;2023-11-19T05:42:43;10.10;99.90
35746;DHT22;21870;42.812;74.628;2023-11-19T05:45:11;10.00;99.90
35746;DHT22;21870;42.812;74.628;2023-11-19T05:47:38;9.90;99.90
35746;DHT22;21870;42.812;74.628;2023-11-19T05:50:04;9.90;99.90
35746;DHT22;21870;42.812;74.628;2023-11-19T05:52:31;9.90;99.90
35746;DHT22;21870;42.812;74.628;2023-11-19T05:55:02;10.00;99.90
35746;DHT22;21870;42.812;74.628;2023-11-19T05:57:31;9.90;99.90
35746;DHT22;21870;42.812;74.628;2023-11-19T06:00:00;9.70;99.90
35746;DHT22;21870;42.812;74.628;2023-11-19T06:02:26;9.70;99.90
35746;DHT22;21870;42.812;74.628;2023-11-19T06:04:53;9.80;99.90
35746;DHT22;21870;42.812;74.628;2023-11-19T06:07:19;9.80;99.90
35746;DHT22;21870;42.812;74.628;2023-11-19T06:09:45;9.80;99.90
35746;DHT22;21870;42.812;74.628;2023-11-19T06:12:12;9.90;99.90
35746;DHT22;21870;42.812;74.628;2023-11-19T06:14:40;10.00;99.90
35746;DHT22;21870;42.812;74.628;2023-11-19T06:17:06;10.00;99.90
35746;DHT22;21870;42.812;74.628;2023-11-19T06:19:34;10.00;99.90
35746;DHT22;21870;42.812;74.628;2023-11-19T06:22:00;10.10;99.90
35746;DHT22;21870;42.812;74.628;2023-11-19T06:24:32;10.10;99.90
35746;DHT22;21870;42.812;74.628;2023-11-19T06:26:58;10.10;99.90
35746;DHT22;21870;42.812;74.628;2023-11-19T06:29:25;10.10;99.90
35746;DHT22;21870;42.812;74.628;2023-11-19T06:31:51;10.10;99.90
35746;DHT22;21870;42.812;74.628;2023-11-19T06:34:17;10.10;99.90
35746;DHT22;21870;42.812;74.628;2023-11-19T06:36:43;10.20;99.90
35746;DHT22;21870;42.812;74.628;2023-11-19T06:39:09;10.20;99.90
35746;DHT22;21870;42.812;74.628;2023-11-19T06:41:36;10.20;99.90
35746;DHT22;21870;42.812;74.628;2023-11-19T06:44:05;10.20;99.90
35746;DHT22;21870;42.812;74.628;2023-11-19T06:46:31;10.20;99.90
35746;DHT22;21870;42.812;74.628;2023-11-19T06:48:57;10.10;99.90
35746;DHT22;21870;42.812;74.628;2023-11-19T06:51:24;10.00;99.90
35746;DHT22;21870;42.812;74.628;2023-11-19T06:53:50;10.10;99.90
35746;DHT22;21870;42.812;74.628;2023-11-19T06:56:21;10.10;99.90
35746;DHT22;21870;42.812;74.628;2023-11-19T06:58:47;10.10;99.90
35746;DHT22;21870;42.812;74.628;2023-11-19T07:01:19;10.10;99.90
35746;DHT22;21870;42.812;74.628;2023-11-19T07:03:48;10.10;99.90
35746;DHT22;21870;42.812;74.628;2023-11-19T07:06:14;10.10;99.90
35746;DHT22;21870;42.812;74.628;2023-11-19T07:08:44;10.10;99.90
35746;DHT22;21870;42.812;74.628;2023-11-19T07:11:13;10.20;99.90
35746;DHT22;21870;42.812;74.628;2023-11-19T07:13:40;10.30;99.90
35746;DHT22;21870;42.812;74.628;2023-11-19T07:16:07;10.30;99.90
35746;DHT22;21870;42.812;74.628;2023-11-19T07:18:35;10.30;99.90
35746;DHT22;21870;42.812;74.628;2023-11-19T07:21:02;10.20;99.90
35746;DHT22;21870;42.812;74.628;2023-11-19T07:23:28;10.20;99.90
35746;DHT22;21870;42.812;74.628;2023-11-19T07:25:54;10.20;99.90
35746;DHT22;21870;42.812;74.628;2023-11-19T07:28:20;10.20;99.90
35746;DHT22;21870;42.812;74.628;2023-11-19T07:30:46;10.20;99.90
35746;DHT22;21870;42.812;74.628;2023-11-19T07:33:13;10.30;99.90
35746;DHT22;21870;42.812;74.628;2023-11-19T07:35:39;10.30;99.90
35746;DHT22;21870;42.812;74.628;2023-11-19T07:38:09;10.30;99.90
35746;DHT22;21870;42.812;74.628;2023-11-19T07:40:35;10.30;99.90
35746;DHT22;21870;42.812;74.628;2023-11-19T07:43:01;10.20;99.90
35746;DHT22;21870;42.812;74.628;2023-11-19T07:45:27;10.30;99.90
35746;DHT22;21870;42.812;74.628;2023-11-19T07:47:53;10.30;99.90
35746;DHT22;21870;42.812;74.628;2023-11-19T07:50:20;10.30;99.90
35746;DHT22;21870;42.812;74.628;2023-11-19T07:52:46;10.10;99.90
35746;DHT22;21870;42.812;74.628;2023-11-19T07:55:12;10.10;99.90
35746;DHT22;21870;42.812;74.628;2023-11-19T07:57:38;10.10;99.90
35746;DHT22;21870;42.812;74.628;2023-11-19T08:00:05;10.10;99.90
35746;DHT22;21870;42.812;74.628;2023-11-19T08:02:32;10.10;99.90
35746;DHT22;21870;42.812;74.628;2023-11-19T08:04:58;10.20;99.90
35746;DHT22;21870;42.812;74.628;2023-11-19T08:07:24;10.20;99.90
35746;DHT22;21870;42.812;74.628;2023-11-19T08:09:50;10.30;99.90
35746;DHT22;21870;42.812;74.628;2023-11-19T08:12:16;10.40;99.90
35746;DHT22;21870;42.812;74.628;2023-11-19T08:14:43;10.40;99.90
35746;DHT22;21870;42.812;74.628;2023-11-19T08:17:09;10.50;99.90
35746;DHT22;21870;42.812;74.628;2023-11-19T08:19:36;10.50;99.90
35746;DHT22;21870;42.812;74.628;2023-11-19T08:22:02;10.50;99.90
35746;DHT22;21870;42.812;74.628;2023-11-19T08:24:28;10.60;99.90
35746;DHT22;21870;42.812;74.628;2023-11-19T08:26:54;10.60;99.90
35746;DHT22;21870;42.812;74.628;2023-11-19T08:29:20;10.50;99.90
35746;DHT22;21870;42.812;74.628;2023-11-19T08:31:47;10.50;99.90
35746;DHT22;21870;42.812;74.628;2023-11-19T08:34:13;10.50;99.90
35746;DHT22;21870;42.812;74.628;2023-11-19T08:36:39;10.60;99.90
35746;DHT22;21870;42.812;74.628;2023-11-19T08:39:05;10.60;99.90
35746;DHT22;21870;42.812;74.628;2023-11-19T08:41:31;10.60;99.90
35746;DHT22;21870;42.812;74.628;2023-11-19T08:43:57;10.60;99.90
35746;DHT22;21870;42.812;74.628;2023-11-19T08:46:23;10.60;99.90
35746;DHT22;21870;42.812;74.628;2023-11-19T08:48:49;10.50;99.90
35746;DHT22;21870;42.812;74.628;2023-11-19T08:51:15;10.60;99.90
35746;DHT22;21870;42.812;74.628;2023-11-19T08:53:42;10.60;99.90
35746;DHT22;21870;42.812;74.628;2023-11-19T08:56:08;10.60;99.90
35746;DHT22;21870;42.812;74.628;2023-11-19T08:58:34;10.60;99.90
35746;DHT22;21870;42.812;74.628;2023-11-19T09:01:00;10.60;99.90
35746;DHT22;21870;42.812;74.628;2023-11-19T09:03:26;10.70;99.90
35746;DHT22;21870;42.812;74.628;2023-11-19T09:05:52;10.70;99.90
35746;DHT22;21870;42.812;74.628;2023-11-19T09:08:18;10.70;99.90
35746;DHT22;21870;42.812;74.628;2023-11-19T09:10:44;10.70;99.90
35746;DHT22;21870;42.812;74.628;2023-11-19T09:13:10;10.60;99.90
35746;DHT22;21870;42.812;74.628;2023-11-19T09:15:36;10.60;99.90
35746;DHT22;21870;42.812;74.628;2023-11-19T09:18:03;10.60;99.90
35746;DHT22;21870;42.812;74.628;2023-11-19T09:20:30;10.60;99.90
35746;DHT22;21870;42.812;74.628;2023-11-19T09:23:04;10.80;99.90
35746;DHT22;21870;42.812;74.628;2023-11-19T09:25:31;10.90;99.90
35746;DHT22;21870;42.812;74.628;2023-11-19T09:27:57;10.90;99.90
35746;DHT22;21870;42.812;74.628;2023-11-19T09:30:23;10.80;99.90
35746;DHT22;21870;42.812;74.628;2023-11-19T09:32:49;10.80;99.90
35746;DHT22;21870;42.812;74.628;2023-11-19T09:35:15;10.80;99.90
35746;DHT22;21870;42.812;74.628;2023-11-19T09:37:43;10.90;99.90
35746;DHT22;21870;42.812;74.628;2023-11-19T09:40:09;10.80;99.90
35746;DHT22;21870;42.812;74.628;2023-11-19T09:42:45;10.70;99.90
35746;DHT22;21870;42.812;74.628;2023-11-19T09:45:15;10.80;99.90
35746;DHT22;21870;42.812;74.628;2023-11-19T09:47:45;10.60;99.90
35746;DHT22;21870;42.812;74.628;2023-11-19T09:50:20;10.60;99.90
35746;DHT22;21870;42.812;74.628;2023-11-19T09:52:49;10.60;99.90
35746;DHT22;21870;42.812;74.628;2023-11-19T09:55:15;10.50;99.90
35746;DHT22;21870;42.812;74.628;2023-11-19T09:57:42;10.50;99.90
35746;DHT22;21870;42.812;74.628;2023-11-19T10:00:10;10.50;99.90
35746;DHT22;21870;42.812;74.628;2023-11-19T10:02:37;10.50;99.90
35746;DHT22;21870;42.812;74.628;2023-11-19T10:05:07;10.30;99.90
35746;DHT22;21870;42.812;74.628;2023-11-19T10:07:33;10.30;99.90
35746;DHT22;21870;42.812;74.628;2023-11-19T10:10:03;10.20;99.90
35746;DHT22;21870;42.812;74.628;2023-11-19T10:12:33;10.20;99.90
35746;DHT22;21870;42.812;74.628;2023-11-19T10:14:59;10.20;99.90
35746;DHT22;21870;42.812;74.628;2023-11-19T10:17:32;10.20;99.90
35746;DHT22;21870;42.812;74.628;2023-11-19T10:19:58;10.20;99.90
35746;DHT22;21870;42.812;74.628;2023-11-19T10:22:25;10.20;99.90
35746;DHT22;21870;42.812;74.628;2023-11-19T10:24:52;10.20;99.90
35746;DHT22;21870;42.812;74.628;2023-11-19T10:27:18;10.10;99.90
35746;DHT22;21870;42.812;74.628;2023-11-19T10:29:47;10.10;99.90
35746;DHT22;21870;42.812;74.628;2023-11-19T10:32:14;10.10;99.90
35746;DHT22;21870;42.812;74.628;2023-11-19T10:34:40;9.90;99.90
35746;DHT22;21870;42.812;74.628;2023-11-19T10:37:07;9.90;99.90
35746;DHT22;21870;42.812;74.628;2023-11-19T10:39:54;9.90;99.90
35746;DHT22;21870;42.812;74.628;2023-11-19T10:42:21;9.90;99.90
35746;DHT22;21870;42.812;74.628;2023-11-19T10:44:47;10.00;99.90
35746;DHT22;21870;42.812;74.628;2023-11-19T10:47:19;10.00;99.90
35746;DHT22;21870;42.812;74.628;2023-11-19T10:49:46;10.00;99.90
35746;DHT22;21870;42.812;74.628;2023-11-19T10:52:12;10.00;99.90
35746;DHT22;21870;42.812;74.628;2023-11-19T10:54:43;10.00;99.90
35746;DHT22;21870;42.812;74.628;2023-11-19T10:57:12;10.00;99.90
35746;DHT22;21870;42.812;74.628;2023-11-19T10:59:43;10.00;99.90
35746;DHT22;21870;42.812;74.628;2023-11-19T11:02:17;10.00;99.90
35746;DHT22;21870;42.812;74.628;2023-11-19T11:04:47;10.10;99.90
35746;DHT22;21870;42.812;74.628;2023-11-19T11:07:16;10.00;99.90
35746;DHT22;21870;42.812;74.628;2023-11-19T11:09:45;10.10;99.90
35746;DHT22;21870;42.812;74.628;2023-11-19T11:12:13;10.10;99.90
35746;DHT22;21870;42.812;74.628;2023-11-19T11:14:40;10.00;99.90
35746;DHT22;21870;42.812;74.628;2023-11-19T11:17:09;10.00;99.90
35746;DHT22;21870;42.812;74.628;2023-11-19T11:19:42;10.00;99.90
35746;DHT22;21870;42.812;74.628;2023-11-19T11:22:09;10.10;99.90
35746;DHT22;21870;42.812;74.628;2023-11-19T11:27:26;10.20;99.90
35746;DHT22;21870;42.812;74.628;2023-11-19T11:32:54;10.20;99.90
35746;DHT22;21870;42.812;74.628;2023-11-19T11:35:35;10.20;99.90
35746;DHT22;21870;42.812;74.628;2023-11-19T11:38:09;10.20;99.90
35746;DHT22;21870;42.812;74.628;2023-11-19T11:40:35;10.20;99.90
35746;DHT22;21870;42.812;74.628;2023-11-19T11:43:04;10.20;99.90
35746;DHT22;21870;42.812;74.628;2023-11-19T11:45:41;10.20;99.90
35746;DHT22;21870;42.812;74.628;2023-11-19T11:48:15;10.10;99.90
35746;DHT22;21870;42.812;74.628;2023-11-19T11:50:53;10.10;99.90
35746;DHT22;21870;42.812;74.628;2023-11-19T11:53:21;10.10;99.90
35746;DHT22;21870;42.812;74.628;2023-11-19T11:58:18;10.10;99.90
35746;DHT22;21870;42.812;74.628;2023-11-19T12:00:47;10.00;99.90
35746;DHT22;21870;42.812;74.628;2023-11-19T12:03:14;10.10;99.90
35746;DHT22;21870;42.812;74.628;2023-11-19T12:05:45;10.10;99.90
35746;DHT22;21870;42.812;74.628;2023-11-19T12:08:13;10.10;99.90
35746;DHT22;21870;42.812;74.628;2023-11-19T12:10:52;10.10;99.90
35746;DHT22;21870;42.812;74.628;2023-11-19T12:13:20;10.20;99.90
35746;DHT22;21870;42.812;74.628;2023-11-19T12:18:29;10.20;99.90
35746;DHT22;21870;42.812;74.628;2023-11-19T12:21:00;10.10;99.90
35746;DHT22;21870;42.812;74.628;2023-11-19T12:23:30;10.00;99.90
35746;DHT22;21870;42.812;74.628;2023-11-19T12:25:57;10.00;99.90
35746;DHT22;21870;42.812;74.628;2023-11-19T12:28:24;10.00;99.90
35746;DHT22;21870;42.812;74.628;2023-11-19T12:30:52;10.00;99.90
35746;DHT22;21870;42.812;74.628;2023-11-19T12:33:22;9.90;99.90
35746;DHT22;21870;42.812;74.628;2023-11-19T12:35:48;9.90;99.90
35746;DHT22;21870;42.812;74.628;2023-11-19T12:38:25;9.90;99.90
35746;DHT22;21870;42.812;74.628;2023-11-19T12:41:05;9.80;99.90
35746;DHT22;21870;42.812;74.628;2023-11-19T12:43:31;9.80;99.90
35746;DHT22;21870;42.812;74.628;2023-11-19T12:45:58;9.80;99.90
35746;DHT22;21870;42.812;74.628;2023-11-19T12:48:24;9.80;99.90
35746;DHT22;21870;42.812;74.628;2023-11-19T12:50:57;9.80;99.90
35746;DHT22;21870;42.812;74.628;2023-11-19T12:53:25;9.80;99.90
35746;DHT22;21870;42.812;74.628;2023-11-19T12:55:53;9.80;99.90
35746;DHT22;21870;42.812;74.628;2023-11-19T12:58:35;9.80;99.90
35746;DHT22;21870;42.812;74.628;2023-11-19T13:01:02;9.90;99.90
35746;DHT22;21870;42.812;74.628;2023-11-19T13:03:33;9.70;99.90
35746;DHT22;21870;42.812;74.628;2023-11-19T13:06:06;9.80;99.90
35746;DHT22;21870;42.812;74.628;2023-11-19T13:08:50;9.70;99.90
35746;DHT22;21870;42.812;74.628;2023-11-19T13:11:35;9.70;99.90
35746;DHT22;21870;42.812;74.628;2023-11-19T13:14:04;9.60;99.90
35746;DHT22;21870;42.812;74.628;2023-11-19T13:16:31;9.70;99.90
35746;DHT22;21870;42.812;74.628;2023-11-19T13:18:57;9.60;99.90
35746;DHT22;21870;42.812;74.628;2023-11-19T13:21:24;9.50;99.90
35746;DHT22;21870;42.812;74.628;2023-11-19T13:23:50;9.50;99.90
35746;DHT22;21870;42.812;74.628;2023-11-19T13:26:17;9.50;99.90
35746;DHT22;21870;42.812;74.628;2023-11-19T13:28:43;9.50;99.90
35746;DHT22;21870;42.812;74.628;2023-11-19T13:31:09;9.40;99.90
35746;DHT22;21870;42.812;74.628;2023-11-19T13:33:36;9.50;99.90
35746;DHT22;21870;42.812;74.628;2023-11-19T13:36:03;9.40;99.90
35746;DHT22;21870;42.812;74.628;2023-11-19T13:38:33;9.30;99.90
35746;DHT22;21870;42.812;74.628;2023-11-19T13:40:59;9.40;99.90
35746;DHT22;21870;42.812;74.628;2023-11-19T13:43:26;9.50;99.90
35746;DHT22;21870;42.812;74.628;2023-11-19T13:45:55;9.50;99.90
35746;DHT22;21870;42.812;74.628;2023-11-19T13:48:21;9.50;99.90
35746;DHT22;21870;42.812;74.628;2023-11-19T13:50:47;9.40;99.90
35746;DHT22;21870;42.812;74.628;2023-11-19T13:53:14;9.40;99.90
35746;DHT22;21870;42.812;74.628;2023-11-19T13:55:40;9.40;99.90
35746;DHT22;21870;42.812;74.628;2023-11-19T13:58:07;9.40;99.90
35746;DHT22;21870;42.812;74.628;2023-11-19T14:00:33;9.50;99.90
35746;DHT22;21870;42.812;74.628;2023-11-19T14:02:59;9.50;99.90
35746;DHT22;21870;42.812;74.628;2023-11-19T14:05:25;9.50;99.90
35746;DHT22;21870;42.812;74.628;2023-11-19T14:07:52;9.60;99.90
35746;DHT22;21870;42.812;74.628;2023-11-19T14:10:19;9.50;99.90
35746;DHT22;21870;42.812;74.628;2023-11-19T14:12:45;9.40;99.90
35746;DHT22;21870;42.812;74.628;2023-11-19T14:15:11;9.40;99.90
35746;DHT22;21870;42.812;74.628;2023-11-19T14:17:39;9.30;99.90
35746;DHT22;21870;42.812;74.628;2023-11-19T14:20:06;9.30;99.90
35746;DHT22;21870;42.812;74.628;2023-11-19T14:22:43;9.40;99.90
35746;DHT22;21870;42.812;74.628;2023-11-19T14:25:10;9.30;99.90
35746;DHT22;21870;42.812;74.628;2023-11-19T14:27:38;9.30;99.90
35746;DHT22;21870;42.812;74.628;2023-11-19T14:30:06;9.30;99.90
35746;DHT22;21870;42.812;74.628;2023-11-19T14:32:32;9.40;99.90
35746;DHT22;21870;42.812;74.628;2023-11-19T14:34:58;9.50;99.90
35746;DHT22;21870;42.812;74.628;2023-11-19T14:37:24;9.60;99.90
35746;DHT22;21870;42.812;74.628;2023-11-19T14:39:51;9.60;99.90
35746;DHT22;21870;42.812;74.628;2023-11-19T14:42:17;9.60;99.90
35746;DHT22;21870;42.812;74.628;2023-11-19T14:44:43;9.60;99.90
35746;DHT22;21870;42.812;74.628;2023-11-19T14:47:10;9.70;99.90
35746;DHT22;21870;42.812;74.628;2023-11-19T14:49:36;9.60;99.90
35746;DHT22;21870;42.812;74.628;2023-11-19T14:52:05;9.70;99.90
35746;DHT22;21870;42.812;74.628;2023-11-19T14:54:31;9.70;99.90
35746;DHT22;21870;42.812;74.628;2023-11-19T14:56:58;9.80;99.90
35746;DHT22;21870;42.812;74.628;2023-11-19T14:59:25;9.80;99.90
35746;DHT22;21870;42.812;74.628;2023-11-19T15:01:51;9.80;99.90
35746;DHT22;21870;42.812;74.628;2023-11-19T15:04:17;9.90;99.90
35746;DHT22;21870;42.812;74.628;2023-11-19T15:06:46;10.00;99.90
35746;DHT22;21870;42.812;74.628;2023-11-19T15:09:12;10.00;99.90
35746;DHT22;21870;42.812;74.628;2023-11-19T15:11:46;10.10;99.90
35746;DHT22;21870;42.812;74.628;2023-11-19T15:14:13;10.10;99.90
35746;DHT22;21870;42.812;74.628;2023-11-19T15:16:45;10.10;99.90
35746;DHT22;21870;42.812;74.628;2023-11-19T15:19:13;10.20;99.90
35746;DHT22;21870;42.812;74.628;2023-11-19T15:21:40;10.20;99.90
35746;DHT22;21870;42.812;74.628;2023-11-19T15:24:11;10.10;99.90
35746;DHT22;21870;42.812;74.628;2023-11-19T15:26:38;10.10;99.90
35746;DHT22;21870;42.812;74.628;2023-11-19T15:29:04;10.20;99.90
35746;DHT22;21870;42.812;74.628;2023-11-19T15:31:31;10.20;99.90
35746;DHT22;21870;42.812;74.628;2023-11-19T15:33:57;10.10;99.90
35746;DHT22;21870;42.812;74.628;2023-11-19T15:36:23;10.20;99.90
35746;DHT22;21870;42.812;74.628;2023-11-19T15:38:50;10.10;99.90